Graysville, Georgia
Current Conditions -  °F | °C
As of 7:53 AM on Thursday 18 Dec 2014 (Local Time) from KCHA Reporting Station
Moderate Rain Moderate Rain  
Wind Chill: 32°   Ceiling: 8000
Heat Index: 37°   Visibility: 10mi
Dew Point: 30°   Wind: 7mph
Humidity: 76%   Direction: 40°NE
Pressure: 30.22"   Gusts: NA
Location:  34.98°N, 85.14°W
Report Text: KCHA 181253Z 04006KT 10SM RA BKN080 BKN120 03/M01 A3022 RMK AO2 RAB13 SLP237 P0000 T00281011
Loading
Personal Weather Stations






























Interactive Weather Map New forecast layout! Learn more

10-Day Weather Forecast

Advertisements
Track Severe Weather on mobile